Time;durP1;ratioP1;P1;durP2;ratioP2;P2;SDS_P1;SDS_P2;PMS_P1;PMS_P2;Temp;Humidity;BMP_temperature;BMP_pressure;BME280_temperature;BME280_humidity;BME280_pressure;Samples;Min_cycle;Max_cycle;Signal;HPM_P1;HPM_P2
2022/10/29 00:02:02;;;;;;;18.40;6.63;;;13.40;99.90;;;;;;21069933;28;20059;-78
2022/10/29 00:12:03;;;;;;;14.77;6.43;;;13.30;99.90;;;;;;21069028;28;20534;-78
2022/10/29 00:22:04;;;;;;;15.77;6.77;;;13.10;99.90;;;;;;21074138;28;20038;-77
2022/10/29 00:32:05;;;;;;;20.20;6.00;;;13.10;99.90;;;;;;21089304;28;20375;-78
2022/10/29 00:42:14;;;;;;;22.50;6.30;;;13.10;99.90;;;;;;21053302;28;20024;-78
2022/10/29 00:52:18;;;;;;;19.33;6.68;;;13.00;99.90;;;;;;21006889;28;20044;-78
2022/10/29 01:02:20;;;;;;;25.05;7.25;;;12.90;99.90;;;;;;21010404;28;20037;-78
2022/10/29 01:12:41;;;;;;;14.68;6.28;;;12.90;99.90;;;;;;21020414;28;20048;-78
2022/10/29 01:23:00;;;;;;;26.55;7.35;;;12.70;99.90;;;;;;21009105;28;20043;-78
2022/10/29 01:33:22;;;;;;;25.88;6.57;;;12.50;99.90;;;;;;21028724;28;20067;-79
2022/10/29 01:43:33;;;;;;;23.30;5.97;;;12.50;99.90;;;;;;21008081;28;20037;-78
2022/10/29 01:53:36;;;;;;;12.30;5.83;;;12.40;99.90;;;;;;21019583;28;20286;-77
2022/10/29 02:04:14;;;;;;;17.63;6.35;;;12.40;99.90;;;;;;20986849;28;20037;-78
2022/10/29 02:14:18;;;;;;;20.63;6.07;;;12.40;99.90;;;;;;21022856;28;20027;-78
2022/10/29 02:24:19;;;;;;;13.98;5.57;;;12.40;99.90;;;;;;21020283;28;20033;-77
2022/10/29 02:34:20;;;;;;;11.67;5.50;;;12.40;99.90;;;;;;21006231;28;20078;-78
2022/10/29 02:44:20;;;;;;;18.43;5.40;;;12.40;99.90;;;;;;21004110;28;20037;-78
2022/10/29 02:54:21;;;;;;;20.67;5.40;;;12.30;99.90;;;;;;21021940;28;20028;-78
2022/10/29 03:04:22;;;;;;;20.73;6.43;;;12.30;99.90;;;;;;21019649;28;20068;-79
2022/10/29 03:14:23;;;;;;;16.10;6.73;;;12.10;99.90;;;;;;21025362;28;20036;-77
2022/10/29 03:24:23;;;;;;;19.47;7.10;;;12.10;99.90;;;;;;21024751;28;20403;-78
2022/10/29 03:34:24;;;;;;;15.63;6.40;;;12.10;99.90;;;;;;21035309;28;20032;-78
2022/10/29 03:44:25;;;;;;;21.17;6.50;;;12.10;99.90;;;;;;21034787;28;20522;-78
2022/10/29 03:54:26;;;;;;;14.90;5.90;;;12.00;99.90;;;;;;21030834;28;20082;-78
2022/10/29 04:04:26;;;;;;;22.37;6.33;;;11.90;99.90;;;;;;21031798;28;20429;-77
2022/10/29 04:14:27;;;;;;;10.40;4.13;;;11.90;99.90;;;;;;21029848;28;20041;-78
2022/10/29 04:24:28;;;;;;;16.83;6.53;;;12.10;99.90;;;;;;21014004;28;20059;-78
2022/10/29 04:34:29;;;;;;;13.83;3.40;;;12.00;99.90;;;;;;21024268;28;20636;-78
2022/10/29 04:44:30;;;;;;;11.00;4.00;;;11.80;99.90;;;;;;21024758;28;20052;-78
2022/10/29 04:54:32;;;;;;;9.43;3.55;;;11.70;99.90;;;;;;21028968;28;20044;-78
2022/10/29 05:04:32;;;;;;;21.47;5.57;;;11.70;99.90;;;;;;21030478;28;20063;-78
2022/10/29 05:14:33;;;;;;;10.40;4.50;;;11.60;99.90;;;;;;21020318;28;20092;-77
2022/10/29 05:24:34;;;;;;;21.83;5.90;;;11.50;99.90;;;;;;21023717;28;20462;-78
2022/10/29 05:34:35;;;;;;;9.83;4.50;;;11.60;99.90;;;;;;21019251;28;20039;-78
2022/10/29 05:44:36;;;;;;;14.10;5.87;;;11.60;99.90;;;;;;21032027;28;20468;-78
2022/10/29 05:54:37;;;;;;;21.93;5.77;;;11.50;99.90;;;;;;21014098;28;20039;-77
2022/10/29 06:04:37;;;;;;;18.73;4.60;;;11.50;99.90;;;;;;21014921;28;20263;-78
2022/10/29 06:14:38;;;;;;;15.03;4.77;;;11.30;99.90;;;;;;21027893;28;20025;-79
2022/10/29 06:24:39;;;;;;;17.37;5.87;;;11.30;99.90;;;;;;21028596;28;20036;-79
2022/10/29 06:34:40;;;;;;;26.00;6.57;;;11.40;99.90;;;;;;21016006;28;20032;-79
2022/10/29 06:44:40;;;;;;;20.20;6.07;;;11.60;99.90;;;;;;21015944;28;20244;-77
2022/10/29 06:54:41;;;;;;;15.97;6.40;;;11.60;99.90;;;;;;21028698;28;20043;-78
2022/10/29 07:04:43;;;;;;;21.93;5.80;;;11.60;99.90;;;;;;21027742;28;20036;-79
2022/10/29 07:14:43;;;;;;;;;;;11.80;99.90;;;;;;21026138;28;20036;-79
2022/10/29 07:24:44;;;;;;;17.60;5.10;;;12.40;99.90;;;;;;21025849;28;19918;-79
2022/10/29 07:34:45;;;;;;;13.40;6.67;;;12.50;99.90;;;;;;21023583;28;20377;-78
2022/10/29 07:44:46;;;;;;;15.63;5.73;;;12.60;99.90;;;;;;21004450;28;20449;-79
2022/10/29 07:54:47;;;;;;;15.73;4.40;;;13.00;99.90;;;;;;21021005;28;20032;-79
2022/10/29 08:04:47;;;;;;;11.27;3.77;;;13.40;99.90;;;;;;21022914;28;20080;-79
2022/10/29 08:14:48;;;;;;;11.37;4.37;;;14.10;99.90;;;;;;21007484;28;20111;-79
2022/10/29 08:24:49;;;;;;;8.77;4.23;;;14.00;99.90;;;;;;21021418;28;20037;-79
2022/10/29 08:34:50;;;;;;;22.03;4.77;;;14.50;99.90;;;;;;21024021;28;20466;-79
2022/10/29 08:45:05;;;;;;;15.47;4.43;;;14.90;99.90;;;;;;20989937;28;20058;-78
2022/10/29 08:55:15;;;;;;;9.93;4.55;;;15.00;99.90;;;;;;21023325;28;20104;-79
2022/10/29 09:05:19;;;;;;;6.35;3.70;;;15.60;99.90;;;;;;21020366;28;20035;-78
2022/10/29 09:15:32;;;;;;;12.82;4.50;;;15.30;99.90;;;;;;21021664;28;20032;-79
2022/10/29 09:25:42;;;;;;;16.33;4.82;;;15.20;99.90;;;;;;21002731;28;20043;-79
2022/10/29 09:35:51;;;;;;;8.63;4.55;;;15.50;99.90;;;;;;21030006;28;20028;-78
2022/10/29 09:46:08;;;;;;;13.23;5.22;;;16.70;99.90;;;;;;21024581;28;20036;-78
2022/10/29 09:56:09;;;;;;;14.18;5.18;;;16.70;99.90;;;;;;21037387;28;20066;-78
2022/10/29 10:06:11;;;;;;;12.43;5.30;;;16.20;99.90;;;;;;21000173;28;20037;-77
2022/10/29 10:16:12;;;;;;;12.07;5.40;;;16.10;99.90;;;;;;21030451;28;20045;-81
2022/10/29 10:26:26;;;;;;;14.10;6.37;;;16.60;99.90;;;;;;20972641;28;20033;-81
2022/10/29 10:36:29;;;;;;;11.30;6.10;;;17.40;99.90;;;;;;20909014;28;20057;-82
2022/10/29 10:46:42;;;;;;;18.33;6.38;;;17.50;99.90;;;;;;20909846;28;20067;-81
2022/10/29 10:57:02;;;;;;;13.07;5.33;;;17.80;99.90;;;;;;21007592;28;20036;-80
2022/10/29 11:07:07;;;;;;;13.13;4.80;;;18.40;99.90;;;;;;21019315;28;20028;-77
2022/10/29 11:17:22;;;;;;;13.68;5.30;;;18.80;99.90;;;;;;21023611;28;20036;-78
2022/10/29 11:27:27;;;;;;;13.50;5.40;;;19.50;99.90;;;;;;21035142;28;20035;-79
2022/10/29 11:37:37;;;;;;;14.25;5.35;;;20.00;99.90;;;;;;21010681;28;20100;-78
2022/10/29 11:48:16;;;;;;;20.70;5.20;;;19.60;99.90;;;;;;21014778;28;20029;-79
2022/10/29 11:58:43;;;;;;;12.18;5.95;;;20.60;99.90;;;;;;21078958;28;20058;-77
2022/10/29 12:09:03;;;;;;;10.82;4.95;;;21.20;99.90;;;;;;20907771;28;20097;-78
2022/10/29 12:19:41;;;;;;;15.48;4.78;;;21.60;99.90;;;;;;20907273;28;20548;-79
2022/10/29 12:30:01;;;;;;;11.88;4.03;;;22.60;99.90;;;;;;20982814;28;20047;-79
2022/10/29 12:40:22;;;;;;;14.35;4.57;;;23.50;99.90;;;;;;21032236;28;20032;-80
2022/10/29 12:50:53;;;;;;;14.73;4.80;;;23.80;99.90;;;;;;21055286;28;20085;-77
2022/10/29 13:00:54;;;;;;;8.48;4.15;;;24.30;99.90;;;;;;21028822;28;20551;-79
2022/10/29 13:10:55;;;;;;;13.95;3.83;;;23.90;99.90;;;;;;21030266;28;20025;-79
2022/10/29 13:20:58;;;;;;;16.27;3.50;;;23.20;99.90;;;;;;21054417;28;20023;-78
2022/10/29 13:31:04;;;;;;;12.93;3.83;;;22.40;99.90;;;;;;21031820;28;20047;-78
2022/10/29 13:41:31;;;;;;;11.30;4.03;;;22.10;99.90;;;;;;21015289;28;20055;-78
2022/10/29 13:51:39;;;;;;;11.23;4.00;;;22.20;99.90;;;;;;21009157;28;20028;-78
2022/10/29 14:01:56;;;;;;;12.60;4.53;;;21.40;99.90;;;;;;21047177;28;20039;-78
2022/10/29 14:12:03;;;;;;;22.27;5.00;;;21.20;99.90;;;;;;21032342;28;20085;-78
2022/10/29 14:22:15;;;;;;;15.43;3.17;;;20.90;99.90;;;;;;21048902;28;20130;-79
2022/10/29 14:32:18;;;;;;;13.52;3.90;;;21.00;99.90;;;;;;21015246;28;20032;-79
2022/10/29 14:42:33;;;;;;;11.88;4.43;;;20.70;99.90;;;;;;21013922;28;20104;-77
2022/10/29 14:52:37;;;;;;;12.40;3.95;;;20.20;99.90;;;;;;20980719;28;20036;-77
2022/10/29 15:02:41;;;;;;;14.70;3.22;;;20.20;99.90;;;;;;21001022;28;20431;-77
2022/10/29 15:12:43;;;;;;;13.60;3.55;;;20.30;99.90;;;;;;20987144;28;20113;-77
2022/10/29 15:22:43;;;;;;;11.13;3.97;;;20.00;99.90;;;;;;21006958;28;20028;-77
2022/10/29 15:32:45;;;;;;;15.00;4.60;;;20.00;99.90;;;;;;20995377;28;20504;-77
2022/10/29 15:42:47;;;;;;;16.23;4.03;;;19.40;99.90;;;;;;20986511;28;20029;-77
2022/10/29 15:52:56;;;;;;;12.97;4.77;;;18.60;99.90;;;;;;21004506;28;20658;-77
2022/10/29 16:03:16;;;;;;;19.35;5.45;;;18.10;99.90;;;;;;21003667;28;20036;-77
2022/10/29 16:13:17;;;;;;;23.55;4.72;;;17.40;99.90;;;;;;20995364;28;20513;-77
2022/10/29 16:23:18;;;;;;;9.95;4.45;;;16.80;99.90;;;;;;21018882;28;20042;-77
2022/10/29 16:33:19;;;;;;;14.90;4.60;;;16.50;99.90;;;;;;20987692;28;20033;-77
2022/10/29 16:43:20;;;;;;;19.57;5.07;;;16.50;99.90;;;;;;21020214;28;20032;-76
2022/10/29 16:53:21;;;;;;;19.80;4.53;;;16.40;99.90;;;;;;21004538;28;20059;-77
2022/10/29 17:03:22;;;;;;;24.43;5.37;;;16.20;99.90;;;;;;21005366;28;20036;-76
2022/10/29 17:13:23;;;;;;;17.95;4.75;;;16.20;99.90;;;;;;20994707;28;20024;-78
2022/10/29 17:23:24;;;;;;;17.43;5.53;;;16.00;99.90;;;;;;20998063;28;20198;-77
2022/10/29 17:33:25;;;;;;;15.17;5.70;;;16.10;99.90;;;;;;20992004;28;20039;-77
2022/10/29 17:43:26;;;;;;;16.33;7.40;;;16.00;99.90;;;;;;21010099;28;20294;-76
2022/10/29 17:53:29;;;;;;;26.20;6.30;;;15.90;99.90;;;;;;20987548;28;20036;-76
2022/10/29 18:03:29;;;;;;;17.20;5.05;;;15.80;99.90;;;;;;20967903;28;20521;-77
2022/10/29 18:13:38;;;;;;;16.13;5.37;;;15.70;99.90;;;;;;20992444;28;20031;-77
2022/10/29 18:23:39;;;;;;;14.85;5.28;;;15.70;99.90;;;;;;20997111;28;20037;-77
2022/10/29 18:33:40;;;;;;;16.45;4.78;;;15.70;99.90;;;;;;20978808;28;20427;-79
2022/10/29 18:43:41;;;;;;;16.53;4.97;;;15.60;99.90;;;;;;21014713;28;20033;-78
2022/10/29 18:53:42;;;;;;;15.53;5.07;;;15.50;99.90;;;;;;21004760;28;20067;-78
2022/10/29 19:03:47;;;;;;;16.73;4.97;;;15.40;99.90;;;;;;21023451;28;20063;-77
2022/10/29 19:13:55;;;;;;;19.85;4.28;;;15.30;99.90;;;;;;21033195;28;20059;-77
2022/10/29 19:23:58;;;;;;;13.57;4.78;;;15.20;99.90;;;;;;21031645;28;20035;-77
2022/10/29 19:34:01;;;;;;;16.25;4.32;;;15.20;99.90;;;;;;21075173;28;20024;-77
2022/10/29 19:44:02;;;;;;;13.63;4.13;;;15.00;99.90;;;;;;21083802;28;20047;-78
2022/10/29 19:54:06;;;;;;;18.08;4.32;;;14.90;99.90;;;;;;21085234;28;20102;-76
2022/10/29 20:04:06;;;;;;;13.75;4.40;;;14.70;99.90;;;;;;21039472;28;20025;-77
2022/10/29 20:14:07;;;;;;;11.20;3.63;;;14.60;99.90;;;;;;21043342;28;20490;-76
2022/10/29 20:24:08;;;;;;;19.47;4.93;;;14.50;99.90;;;;;;21082404;28;20119;-76
2022/10/29 20:34:09;;;;;;;20.97;5.30;;;14.40;99.90;;;;;;21070896;28;20025;-76
2022/10/29 20:44:10;;;;;;;44.83;5.40;;;14.40;99.90;;;;;;21074241;28;20040;-76
2022/10/29 20:54:10;;;;;;;19.17;3.73;;;14.20;99.90;;;;;;21086313;28;20028;-76
2022/10/29 21:04:11;;;;;;;13.83;4.77;;;14.10;99.90;;;;;;21063833;28;20545;-76
2022/10/29 21:14:12;;;;;;;13.57;4.97;;;13.90;99.90;;;;;;20980619;28;20673;-76
2022/10/29 21:24:13;;;;;;;13.53;5.03;;;13.90;99.90;;;;;;20990175;28;20082;-76
2022/10/29 21:34:14;;;;;;;17.40;4.93;;;13.80;99.90;;;;;;21043863;28;20024;-76
2022/10/29 21:44:14;;;;;;;10.40;3.40;;;13.70;99.90;;;;;;21041702;28;20064;-76
2022/10/29 21:54:15;;;;;;;15.47;3.67;;;13.70;99.90;;;;;;21065365;28;20445;-77
2022/10/29 22:04:16;;;;;;;16.57;3.30;;;13.60;99.90;;;;;;21083708;28;20053;-77
2022/10/29 22:14:17;;;;;;;15.80;3.67;;;13.50;99.90;;;;;;21083771;28;20047;-76
2022/10/29 22:24:18;;;;;;;14.63;4.00;;;13.30;99.90;;;;;;21079783;28;20021;-76
2022/10/29 22:34:18;;;;;;;20.67;4.00;;;13.00;99.90;;;;;;21059189;28;20028;-77
2022/10/29 22:44:19;;;;;;;13.00;3.97;;;13.20;99.90;;;;;;21075475;28;20463;-76
2022/10/29 22:54:20;;;;;;;14.97;3.87;;;13.00;99.90;;;;;;21055788;28;20047;-77
2022/10/29 23:04:21;;;;;;;12.77;4.30;;;12.90;99.90;;;;;;21074870;28;20056;-76
2022/10/29 23:14:22;;;;;;;15.23;3.97;;;12.70;99.90;;;;;;21074936;28;20044;-77
2022/10/29 23:24:23;;;;;;;9.30;3.67;;;12.50;99.90;;;;;;21056573;28;20039;-76
2022/10/29 23:34:23;;;;;;;22.00;3.87;;;12.50;99.90;;;;;;21076332;28;20032;-76
2022/10/29 23:44:24;;;;;;;17.83;4.07;;;12.10;99.90;;;;;;21097458;28;20036;-76
2022/10/29 23:54:25;;;;;;;16.37;4.40;;;12.20;99.90;;;;;;21095811;28;20685;-76
